Time;durP1;ratioP1;P1;durP2;ratioP2;P2;SDS_P1;SDS_P2;PMS_P1;PMS_P2;Temp;Humidity;BMP_temperature;BMP_pressure;BME280_temperature;BME280_humidity;BME280_pressure;Samples;Min_cycle;Max_cycle;Signal;HPM_P1;HPM_P2
2022/03/10 00:01:47;;;;;;;13.65;11.32;;;3.30;70.60;;;;;;5009623;28;20072;-43
2022/03/10 00:04:14;;;;;;;15.50;11.48;;;3.30;70.60;;;;;;5026598;28;20034;-43
2022/03/10 00:06:40;;;;;;;13.45;10.73;;;3.30;70.30;;;;;;5012484;28;20041;-44
2022/03/10 00:09:12;;;;;;;14.77;10.55;;;3.30;70.30;;;;;;5030183;28;20061;-45
2022/03/10 00:11:40;;;;;;;15.48;11.55;;;3.30;70.90;;;;;;5013246;28;20140;-43
2022/03/10 00:14:07;;;;;;;19.40;10.98;;;3.20;70.90;;;;;;5013083;28;20465;-44
2022/03/10 00:16:34;;;;;;;18.35;12.13;;;3.30;70.90;;;;;;5030478;28;20039;-43
2022/03/10 00:19:01;;;;;;;15.98;11.55;;;3.30;70.80;;;;;;4996513;28;20034;-42
2022/03/10 00:21:30;;;;;;;18.35;11.60;;;3.40;70.60;;;;;;5030268;28;20021;-44
2022/03/10 00:23:56;;;;;;;14.70;10.95;;;3.40;70.90;;;;;;5029714;28;20030;-46
2022/03/10 00:26:24;;;;;;;15.55;11.25;;;3.40;70.50;;;;;;5012926;28;20048;-43
2022/03/10 00:28:50;;;;;;;14.40;10.45;;;3.40;70.70;;;;;;5029898;28;20026;-43
2022/03/10 00:31:17;;;;;;;17.23;12.10;;;3.50;70.20;;;;;;5012281;28;20541;-43
2022/03/10 00:33:46;;;;;;;15.73;10.52;;;3.50;69.90;;;;;;5029976;28;20037;-43
2022/03/10 00:36:13;;;;;;;;;;;3.60;69.30;;;;;;5030642;28;20063;-44
2022/03/10 00:38:41;;;;;;;15.93;10.52;;;3.70;69.00;;;;;;5012619;28;19967;-43
2022/03/10 00:41:09;;;;;;;16.08;11.10;;;3.70;69.40;;;;;;5029250;28;20121;-42
2022/03/10 00:43:37;;;;;;;30.98;13.88;;;3.50;69.90;;;;;;4996926;28;20041;-44
2022/03/10 00:46:07;;;;;;;15.05;11.35;;;3.50;70.30;;;;;;5029927;28;20033;-44
2022/03/10 00:48:36;;;;;;;13.45;10.50;;;3.40;70.20;;;;;;5012508;28;20491;-44
2022/03/10 00:51:08;;;;;;;15.05;11.32;;;3.40;70.50;;;;;;5029297;28;20029;-49
2022/03/10 00:53:34;;;;;;;13.70;11.18;;;3.30;70.90;;;;;;5029158;28;20427;-43
2022/03/10 00:56:02;;;;;;;18.05;12.48;;;3.20;71.40;;;;;;5012564;28;20048;-44
2022/03/10 00:58:29;;;;;;;16.67;12.25;;;3.10;71.60;;;;;;5012400;28;20106;-44
2022/03/10 01:00:56;;;;;;;16.55;12.52;;;3.10;71.70;;;;;;5030038;28;20402;-44
2022/03/10 01:03:23;;;;;;;15.00;11.55;;;3.00;72.00;;;;;;5029740;28;20087;-47
2022/03/10 01:05:49;;;;;;;17.20;12.30;;;3.00;72.20;;;;;;5029528;28;20394;-44
2022/03/10 01:08:15;;;;;;;15.65;12.20;;;3.00;72.70;;;;;;5029223;28;20097;-44
2022/03/10 01:10:42;;;;;;;15.38;11.30;;;3.00;72.70;;;;;;5029906;28;20113;-44
2022/03/10 01:13:21;;;;;;;17.27;12.45;;;3.00;72.90;;;;;;5011771;28;20666;-43
2022/03/10 01:15:47;;;;;;;15.52;11.45;;;3.10;72.70;;;;;;4995690;28;20041;-44
2022/03/10 01:18:14;;;;;;;20.48;11.68;;;3.20;72.30;;;;;;5028517;28;20099;-43
2022/03/10 01:20:43;;;;;;;17.52;11.73;;;3.20;72.10;;;;;;4995481;28;20377;-43
2022/03/10 01:23:10;;;;;;;13.80;11.80;;;3.20;72.10;;;;;;5012054;28;20029;-46
2022/03/10 01:25:38;;;;;;;14.30;11.73;;;3.30;72.00;;;;;;5029255;28;20033;-43
2022/03/10 01:28:04;;;;;;;16.20;10.68;;;3.30;71.80;;;;;;5029399;28;20028;-42
2022/03/10 01:30:33;;;;;;;17.83;12.30;;;3.30;71.70;;;;;;5012120;28;20117;-43
2022/03/10 01:33:01;;;;;;;15.82;11.30;;;3.30;71.70;;;;;;5029258;28;20505;-42
2022/03/10 01:35:32;;;;;;;18.60;12.18;;;3.30;71.80;;;;;;5029351;28;20405;-42
2022/03/10 01:38:00;;;;;;;15.60;11.90;;;3.20;72.00;;;;;;5013657;28;20032;-46
2022/03/10 01:40:27;;;;;;;16.33;12.05;;;3.20;72.00;;;;;;5012384;28;20029;-42
2022/03/10 01:42:53;;;;;;;17.20;12.75;;;3.10;72.30;;;;;;5029070;28;20136;-45
2022/03/10 01:45:19;;;;;;;19.02;12.27;;;3.00;72.80;;;;;;5029364;28;20133;-44
2022/03/10 01:47:46;;;;;;;16.08;11.95;;;3.00;73.10;;;;;;5029203;28;20029;-44
2022/03/10 01:50:15;;;;;;;17.52;11.93;;;2.90;73.10;;;;;;5029129;28;20041;-43
2022/03/10 01:52:43;;;;;;;15.57;12.45;;;2.90;73.30;;;;;;5019580;28;20033;-43
2022/03/10 01:55:10;;;;;;;19.65;13.75;;;2.90;73.30;;;;;;5009590;28;20053;-44
2022/03/10 01:57:37;;;;;;;16.73;13.07;;;2.90;72.90;;;;;;5011932;28;20033;-46
2022/03/10 02:00:06;;;;;;;18.27;13.77;;;2.90;73.20;;;;;;5029326;28;20065;-45
2022/03/10 02:02:32;;;;;;;19.10;11.98;;;2.90;73.30;;;;;;5011648;28;20100;-44
2022/03/10 02:04:59;;;;;;;17.27;13.25;;;2.80;73.40;;;;;;5031580;28;20033;-43
2022/03/10 02:13:09;;;;;;;16.42;12.05;;;2.70;74.10;;;;;;5032391;28;20055;-43
2022/03/10 02:18:22;;;;;;;15.93;13.05;;;2.70;74.30;;;;;;5032423;28;20037;-46
2022/03/10 02:20:56;;;;;;;18.50;13.10;;;2.70;74.50;;;;;;5015096;28;20125;-43
2022/03/10 02:23:23;;;;;;;17.60;13.60;;;2.70;74.50;;;;;;5032533;28;20033;-43
2022/03/10 02:25:53;;;;;;;16.17;12.57;;;2.70;74.60;;;;;;5032488;28;20033;-43
2022/03/10 02:28:20;;;;;;;21.33;14.05;;;2.80;74.50;;;;;;5032487;28;20033;-45
2022/03/10 02:30:46;;;;;;;20.15;13.52;;;2.90;74.40;;;;;;5032586;28;20507;-45
2022/03/10 02:33:13;;;;;;;19.35;12.10;;;2.80;74.30;;;;;;5030701;28;20072;-42
2022/03/10 02:35:41;;;;;;;21.63;15.05;;;2.90;74.50;;;;;;5031990;28;20041;-43
2022/03/10 02:38:08;;;;;;;16.55;13.07;;;2.90;74.60;;;;;;5031288;28;20056;-43
2022/03/10 02:40:35;;;;;;;20.10;14.05;;;2.90;74.30;;;;;;5031927;28;20029;-43
2022/03/10 02:43:03;;;;;;;22.77;14.23;;;2.90;74.30;;;;;;5013940;28;20025;-43
2022/03/10 02:45:33;;;;;;;17.08;13.77;;;2.90;74.50;;;;;;5031215;28;20041;-43
2022/03/10 02:47:58;;;;;;;;;;;2.90;74.70;;;;;;5034475;28;20033;-43
2022/03/10 02:50:25;;;;;;;16.85;12.77;;;2.80;74.80;;;;;;5032059;28;20001;-42
2022/03/10 02:52:52;;;;;;;17.80;13.25;;;2.80;74.90;;;;;;5031899;28;20083;-44
2022/03/10 02:55:19;;;;;;;17.63;13.55;;;2.80;74.80;;;;;;5040114;28;20036;-43
2022/03/10 02:57:46;;;;;;;17.75;13.63;;;2.80;74.90;;;;;;5050321;28;20104;-44
2022/03/10 03:00:16;;;;;;;18.75;12.98;;;2.70;74.60;;;;;;5031064;28;20111;-43
2022/03/10 03:02:43;;;;;;;;;;;2.70;74.90;;;;;;5041948;28;20473;-43
2022/03/10 03:05:12;;;;;;;16.63;13.77;;;2.60;75.00;;;;;;5032095;28;19936;-44
2022/03/10 03:07:40;;;;;;;17.02;13.93;;;2.60;75.20;;;;;;4998962;28;20033;-44
2022/03/10 03:10:07;;;;;;;17.30;13.18;;;2.70;75.00;;;;;;5031724;28;20056;-45
2022/03/10 03:12:33;;;;;;;17.90;13.75;;;2.70;74.80;;;;;;5013859;28;20021;-43
2022/03/10 03:15:00;;;;;;;20.67;15.90;;;2.80;74.70;;;;;;5030716;28;20339;-44
2022/03/10 03:17:28;;;;;;;15.75;12.60;;;2.90;74.40;;;;;;5032089;28;20437;-45
2022/03/10 03:19:55;;;;;;;21.35;13.27;;;2.90;74.30;;;;;;5031214;28;20068;-44
2022/03/10 03:22:22;;;;;;;17.48;12.85;;;3.00;74.10;;;;;;5013980;28;20413;-44
2022/03/10 03:24:49;;;;;;;17.98;13.73;;;3.00;73.80;;;;;;5030636;28;20118;-43
2022/03/10 03:27:16;;;;;;;20.85;13.95;;;3.00;73.80;;;;;;5023305;28;20032;-44
2022/03/10 03:29:44;;;;;;;16.17;12.85;;;3.00;73.70;;;;;;5031105;28;20500;-43
2022/03/10 03:32:11;;;;;;;20.00;13.18;;;3.10;73.50;;;;;;5029925;28;20524;-42
2022/03/10 03:34:39;;;;;;;16.33;12.35;;;3.10;73.50;;;;;;5015567;28;20057;-43
2022/03/10 03:37:07;;;;;;;15.93;12.38;;;3.10;73.30;;;;;;5013500;28;20057;-43
2022/03/10 03:39:36;;;;;;;17.30;12.40;;;3.00;73.20;;;;;;5018492;28;20033;-44
2022/03/10 03:42:06;;;;;;;17.52;13.07;;;3.10;73.20;;;;;;5017263;28;20030;-43
2022/03/10 03:44:33;;;;;;;16.95;12.85;;;3.10;73.20;;;;;;5028578;28;20044;-44
2022/03/10 03:46:59;;;;;;;18.48;13.18;;;3.10;73.20;;;;;;5030312;28;20111;-43
2022/03/10 03:49:26;;;;;;;17.30;13.63;;;3.10;73.10;;;;;;5013085;28;20033;-44
2022/03/10 03:51:53;;;;;;;18.77;13.93;;;3.00;73.20;;;;;;5028868;28;20029;-42
2022/03/10 03:54:21;;;;;;;19.17;12.90;;;3.10;73.20;;;;;;5030634;28;20087;-43
2022/03/10 03:56:48;;;;;;;17.40;13.23;;;3.10;73.20;;;;;;5013226;28;20123;-44
2022/03/10 03:59:13;;;;;;;19.48;15.25;;;3.10;73.30;;;;;;5030630;28;20425;-43
2022/03/10 04:01:42;;;;;;;18.73;13.65;;;3.10;73.30;;;;;;5013672;28;20049;-44
2022/03/10 04:04:08;;;;;;;14.93;12.40;;;3.00;73.40;;;;;;5030791;28;20044;-42
2022/03/10 04:06:35;;;;;;;17.67;13.57;;;3.00;73.40;;;;;;5030927;28;20036;-45
2022/03/10 04:09:04;;;;;;;18.33;14.48;;;3.00;73.50;;;;;;5014501;28;20125;-47
2022/03/10 04:11:32;;;;;;;19.40;14.18;;;3.00;73.60;;;;;;5016948;28;20034;-43
2022/03/10 04:13:58;;;;;;;20.33;13.45;;;3.00;73.60;;;;;;5023060;28;20029;-42
2022/03/10 04:16:26;;;;;;;18.17;14.85;;;3.00;73.70;;;;;;5030768;28;20442;-45
2022/03/10 04:18:53;;;;;;;18.97;14.87;;;2.90;73.70;;;;;;5028402;28;20025;-42
2022/03/10 04:21:19;;;;;;;29.40;21.58;;;2.90;74.00;;;;;;5030135;28;20127;-43
2022/03/10 04:23:44;;;;;;;21.45;17.13;;;2.90;74.10;;;;;;5029048;28;20522;-45
2022/03/10 04:26:11;;;;;;;17.50;14.77;;;2.90;74.30;;;;;;5012950;28;20458;-44
2022/03/10 04:28:38;;;;;;;18.60;15.35;;;2.80;74.50;;;;;;5010952;28;20022;-44
2022/03/10 04:31:05;;;;;;;20.42;14.43;;;2.80;74.70;;;;;;5013094;28;20033;-44
2022/03/10 04:33:31;;;;;;;19.02;13.50;;;2.80;74.80;;;;;;5029011;28;20047;-43
2022/03/10 04:35:56;;;;;;;16.98;14.05;;;2.80;74.60;;;;;;4997279;28;20032;-44
2022/03/10 04:38:22;;;;;;;23.08;14.77;;;2.80;74.50;;;;;;5030097;28;20434;-44
2022/03/10 04:40:49;;;;;;;18.15;14.63;;;2.80;74.40;;;;;;5030197;28;20099;-43
2022/03/10 04:43:20;;;;;;;20.60;14.63;;;2.80;74.50;;;;;;5029874;28;20033;-43
2022/03/10 04:45:46;;;;;;;19.80;13.90;;;2.80;74.50;;;;;;5042220;28;20033;-42
2022/03/10 04:48:13;;;;;;;18.25;13.65;;;2.80;74.50;;;;;;5015146;28;20026;-44
2022/03/10 04:50:40;;;;;;;17.25;14.35;;;2.80;74.40;;;;;;5029557;28;20021;-43
2022/03/10 04:53:12;;;;;;;17.60;14.07;;;2.80;74.40;;;;;;4995380;28;20481;-42
2022/03/10 04:55:39;;;;;;;17.52;13.65;;;2.80;74.40;;;;;;5029658;28;20355;-43
2022/03/10 04:58:08;;;;;;;18.17;14.57;;;2.70;74.30;;;;;;5029547;28;20119;-43
2022/03/10 05:00:35;;;;;;;18.30;13.43;;;2.80;74.10;;;;;;5029975;28;20033;-43
2022/03/10 05:03:02;;;;;;;18.88;13.18;;;2.70;73.90;;;;;;5011987;28;20028;-43
2022/03/10 05:05:28;;;;;;;23.58;14.70;;;2.70;74.20;;;;;;5012466;28;20343;-42
2022/03/10 05:07:59;;;;;;;18.52;12.95;;;2.60;74.30;;;;;;5028839;28;20033;-44
2022/03/10 05:10:26;;;;;;;16.85;12.45;;;2.50;74.30;;;;;;5012414;28;20116;-43
2022/03/10 05:13:00;;;;;;;19.77;14.15;;;2.30;74.80;;;;;;5029519;28;20049;-44
2022/03/10 05:15:31;;;;;;;18.08;13.90;;;2.20;75.70;;;;;;4997178;28;20041;-44
2022/03/10 05:18:00;;;;;;;17.80;13.75;;;2.10;75.70;;;;;;5029577;28;20029;-44
2022/03/10 05:20:26;;;;;;;16.58;13.32;;;2.00;75.90;;;;;;4979577;28;20656;-43
2022/03/10 05:22:57;;;;;;;20.67;14.55;;;2.00;75.80;;;;;;5028189;28;20095;-44
2022/03/10 05:25:37;;;;;;;19.60;13.93;;;2.00;75.80;;;;;;5011860;28;20024;-44
2022/03/10 05:28:05;;;;;;;20.70;14.20;;;2.00;76.00;;;;;;5029504;28;20506;-45
2022/03/10 05:30:31;;;;;;;21.98;14.38;;;1.90;76.60;;;;;;4996020;28;20120;-45
2022/03/10 05:32:57;;;;;;;22.67;14.65;;;1.90;77.40;;;;;;5028747;28;20044;-43
2022/03/10 05:35:27;;;;;;;19.52;14.65;;;1.90;77.70;;;;;;5029589;28;20018;-44
2022/03/10 05:37:56;;;;;;;18.15;13.63;;;1.90;77.90;;;;;;5028892;28;20026;-44
2022/03/10 05:40:23;;;;;;;19.60;14.88;;;1.90;77.90;;;;;;5033378;28;20026;-45
2022/03/10 05:42:55;;;;;;;19.38;13.70;;;1.90;77.80;;;;;;5033191;28;20228;-44
2022/03/10 05:45:23;;;;;;;22.05;14.63;;;1.90;77.90;;;;;;4983995;28;20030;-46
2022/03/10 05:47:52;;;;;;;20.27;14.50;;;1.90;77.80;;;;;;5031861;28;20042;-43
2022/03/10 05:50:29;;;;;;;18.90;14.05;;;1.90;77.50;;;;;;5015401;28;20426;-43
2022/03/10 05:52:57;;;;;;;18.23;14.18;;;1.80;77.50;;;;;;5031925;28;20045;-44
2022/03/10 05:55:26;;;;;;;19.85;14.23;;;1.70;77.60;;;;;;5025628;28;20022;-44
2022/03/10 05:57:57;;;;;;;19.92;14.57;;;1.60;77.50;;;;;;5025300;28;20029;-44
2022/03/10 06:00:24;;;;;;;20.65;14.35;;;1.60;77.90;;;;;;5029091;28;20035;-44
2022/03/10 06:02:54;;;;;;;17.77;14.38;;;1.50;78.10;;;;;;5027829;28;20053;-47
2022/03/10 06:05:19;;;;;;;;;;;1.50;78.40;;;;;;5032229;28;20116;-44
2022/03/10 06:07:46;;;;;;;17.60;14.38;;;1.40;78.30;;;;;;5014385;28;19999;-46
2022/03/10 06:10:13;;;;;;;21.25;14.40;;;1.50;78.10;;;;;;5030962;28;20107;-43
2022/03/10 06:12:43;;;;;;;18.75;13.75;;;1.40;78.10;;;;;;5032271;28;20037;-44
2022/03/10 06:15:11;;;;;;;22.85;17.17;;;1.50;78.10;;;;;;5029573;28;20108;-44
2022/03/10 06:17:37;;;;;;;23.13;15.85;;;1.40;78.40;;;;;;5008692;28;20104;-48
2022/03/10 06:20:05;;;;;;;17.83;14.40;;;1.40;78.20;;;;;;5029746;28;20443;-45
2022/03/10 06:22:32;;;;;;;24.27;15.93;;;1.50;77.90;;;;;;5009273;28;20026;-45
2022/03/10 06:25:01;;;;;;;22.42;14.85;;;1.50;77.80;;;;;;5023497;28;20045;-45
2022/03/10 06:27:29;;;;;;;18.92;14.65;;;1.50;77.60;;;;;;5013880;28;20051;-46
2022/03/10 06:29:55;;;;;;;19.40;13.75;;;1.60;77.70;;;;;;5014225;28;20087;-43
2022/03/10 06:32:24;;;;;;;20.73;13.68;;;1.50;77.80;;;;;;5032267;28;20029;-43
2022/03/10 06:34:59;;;;;;;20.00;14.25;;;1.50;77.80;;;;;;5032149;28;20022;-43
2022/03/10 06:37:26;;;;;;;19.30;14.32;;;1.60;77.60;;;;;;5015067;28;20099;-44
2022/03/10 06:39:54;;;;;;;19.90;14.55;;;1.70;77.40;;;;;;5012335;28;20044;-44
2022/03/10 06:42:21;;;;;;;18.73;15.27;;;1.70;77.20;;;;;;5028672;28;20025;-43
2022/03/10 06:44:47;;;;;;;18.13;14.02;;;1.70;77.40;;;;;;5013612;28;20504;-43
2022/03/10 06:47:17;;;;;;;16.02;13.02;;;1.80;77.50;;;;;;5010499;28;20037;-44
2022/03/10 06:49:43;;;;;;;23.83;14.10;;;1.90;77.20;;;;;;5030253;28;20025;-43
2022/03/10 06:52:10;;;;;;;20.77;14.82;;;2.10;76.30;;;;;;4995635;28;20041;-44
2022/03/10 06:54:40;;;;;;;18.88;13.38;;;2.20;75.90;;;;;;5029701;28;20095;-44
2022/03/10 06:57:08;;;;;;;15.88;12.43;;;2.40;75.40;;;;;;5030159;28;20035;-46
2022/03/10 06:59:36;;;;;;;20.75;13.75;;;2.50;75.00;;;;;;5030347;28;20762;-44
2022/03/10 07:02:03;;;;;;;16.75;12.40;;;2.60;74.60;;;;;;5028727;28;20037;-45
2022/03/10 07:04:29;;;;;;;17.75;12.27;;;2.70;74.30;;;;;;5012369;28;20429;-43
2022/03/10 07:06:57;;;;;;;16.98;11.93;;;2.90;73.90;;;;;;5029362;28;20029;-45
2022/03/10 07:09:24;;;;;;;20.33;13.23;;;2.90;73.40;;;;;;5030303;28;20045;-45
2022/03/10 07:11:52;;;;;;;17.85;13.32;;;3.00;73.00;;;;;;5027483;28;20035;-43
2022/03/10 07:14:26;;;;;;;16.48;13.40;;;3.20;72.60;;;;;;5025323;28;20090;-45
2022/03/10 07:16:55;;;;;;;15.32;12.25;;;3.30;72.30;;;;;;5024780;28;20025;-44
2022/03/10 07:19:22;;;;;;;15.43;12.48;;;3.40;72.10;;;;;;4989205;28;20443;-43
2022/03/10 07:21:49;;;;;;;17.08;13.60;;;3.50;71.90;;;;;;5026894;28;20143;-43
2022/03/10 07:24:17;;;;;;;17.40;12.70;;;3.60;71.70;;;;;;5031040;28;20022;-44
2022/03/10 07:26:45;;;;;;;17.65;12.98;;;3.80;71.50;;;;;;5013899;28;20072;-43
2022/03/10 07:29:12;;;;;;;17.52;12.40;;;3.90;71.10;;;;;;5031208;28;20538;-45
2022/03/10 07:31:40;;;;;;;18.58;13.18;;;4.10;70.60;;;;;;5009347;28;20038;-44
2022/03/10 07:34:09;;;;;;;17.40;12.40;;;4.30;70.10;;;;;;5013492;28;20077;-43
2022/03/10 07:36:40;;;;;;;18.67;13.05;;;4.40;69.00;;;;;;5030207;28;20029;-46
2022/03/10 07:39:05;;;;;;;18.13;12.23;;;4.70;68.20;;;;;;5013502;28;20037;-46
2022/03/10 07:41:33;;;;;;;15.65;12.00;;;4.90;67.50;;;;;;5031151;28;20044;-44
2022/03/10 07:44:00;;;;;;;20.48;13.48;;;5.00;67.10;;;;;;5024556;28;20038;-43
2022/03/10 07:46:27;;;;;;;15.25;11.60;;;5.20;67.20;;;;;;5027410;28;20029;-44
2022/03/10 07:48:55;;;;;;;14.68;11.63;;;5.20;66.80;;;;;;5030882;28;20026;-43
2022/03/10 07:51:22;;;;;;;18.98;12.35;;;5.40;65.90;;;;;;5030670;28;20030;-44
2022/03/10 07:53:49;;;;;;;13.00;10.98;;;5.50;66.40;;;;;;5027281;28;20034;-43
2022/03/10 07:56:18;;;;;;;15.05;12.07;;;5.80;65.60;;;;;;5028264;28;20338;-44
2022/03/10 07:58:46;;;;;;;15.45;12.30;;;6.10;64.00;;;;;;4997856;28;20052;-42
2022/03/10 08:01:13;;;;;;;21.23;12.60;;;6.40;62.80;;;;;;5005524;28;20036;-45
2022/03/10 08:03:40;;;;;;;14.32;10.65;;;6.80;61.60;;;;;;5023020;28;20048;-43
2022/03/10 08:06:12;;;;;;;14.13;10.80;;;7.00;60.90;;;;;;4998442;28;20116;-42
2022/03/10 08:08:42;;;;;;;14.85;10.88;;;7.50;58.80;;;;;;5020663;28;20057;-43
2022/03/10 08:11:08;;;;;;;15.20;11.23;;;7.90;57.90;;;;;;5011288;28;20018;-42
2022/03/10 08:13:35;;;;;;;14.32;11.52;;;8.10;56.80;;;;;;5009310;28;20360;-45
2022/03/10 08:16:07;;;;;;;14.45;10.10;;;8.20;56.70;;;;;;5017686;28;20398;-43
2022/03/10 08:18:33;;;;;;;16.50;11.70;;;8.30;55.00;;;;;;5007147;28;20117;-44
2022/03/10 08:21:01;;;;;;;17.40;12.40;;;8.60;55.10;;;;;;5028900;28;20339;-43
2022/03/10 08:23:29;;;;;;;15.68;10.55;;;8.90;53.60;;;;;;5029073;28;20041;-42
2022/03/10 08:25:55;;;;;;;14.85;11.73;;;9.10;53.20;;;;;;5011251;28;20354;-43
2022/03/10 08:28:25;;;;;;;13.20;10.40;;;9.30;52.60;;;;;;5028878;28;20115;-45
2022/03/10 08:30:53;;;;;;;14.75;11.13;;;9.40;51.90;;;;;;5026604;28;20041;-47
2022/03/10 08:33:20;;;;;;;14.35;11.55;;;9.70;50.90;;;;;;5025763;28;20092;-43
2022/03/10 08:35:48;;;;;;;16.95;11.10;;;9.80;50.30;;;;;;5008163;28;20038;-44
2022/03/10 08:38:19;;;;;;;15.43;10.70;;;9.90;49.90;;;;;;5010624;28;20048;-43
2022/03/10 08:40:45;;;;;;;15.77;10.82;;;10.10;49.60;;;;;;5002577;28;20037;-43
2022/03/10 08:43:13;;;;;;;13.48;10.85;;;10.20;49.30;;;;;;4992307;28;20030;-47
2022/03/10 08:45:41;;;;;;;12.05;10.23;;;10.40;48.50;;;;;;5028351;28;20041;-46
2022/03/10 08:48:13;;;;;;;17.30;10.73;;;10.70;48.00;;;;;;5029207;28;20025;-43
2022/03/10 08:50:41;;;;;;;16.42;11.35;;;10.60;47.00;;;;;;4995628;28;20370;-45
2022/03/10 08:53:10;;;;;;;14.80;10.93;;;10.40;48.00;;;;;;5024107;28;20088;-45
2022/03/10 08:55:40;;;;;;;13.55;9.30;;;10.40;47.50;;;;;;5019170;28;20493;-44
2022/03/10 08:58:07;;;;;;;14.23;10.57;;;10.50;47.50;;;;;;5027577;28;20065;-45
2022/03/10 09:00:33;;;;;;;13.23;10.18;;;10.40;47.10;;;;;;5027980;28;20037;-45
2022/03/10 09:02:59;;;;;;;12.15;10.63;;;10.60;47.80;;;;;;5029136;28;20035;-47
2022/03/10 09:05:26;;;;;;;15.48;10.35;;;10.40;47.10;;;;;;5010771;28;20075;-46
2022/03/10 09:07:52;;;;;;;11.88;10.48;;;10.30;47.50;;;;;;5025712;28;20052;-43
2022/03/10 09:10:19;;;;;;;15.93;10.25;;;10.30;48.20;;;;;;5001478;28;20045;-44
2022/03/10 09:12:47;;;;;;;12.85;10.02;;;10.60;48.30;;;;;;5000343;28;20041;-43
2022/03/10 09:15:16;;;;;;;12.40;9.80;;;10.70;47.00;;;;;;5034955;28;20453;-43
2022/03/10 09:17:43;;;;;;;13.35;10.77;;;10.70;46.80;;;;;;5034547;28;20030;-42
2022/03/10 09:20:13;;;;;;;12.80;10.88;;;10.70;47.40;;;;;;5034964;28;20045;-43
2022/03/10 09:22:42;;;;;;;15.25;10.38;;;10.80;46.90;;;;;;5034503;28;20045;-44
2022/03/10 09:25:09;;;;;;;13.25;9.30;;;10.70;46.80;;;;;;5022102;28;20029;-45
2022/03/10 09:27:37;;;;;;;13.27;9.63;;;11.00;46.60;;;;;;5034872;28;20385;-49
2022/03/10 09:30:21;;;;;;;15.82;10.70;;;11.10;46.70;;;;;;5016572;28;20099;-45
2022/03/10 09:32:48;;;;;;;11.38;9.43;;;11.10;46.70;;;;;;5017909;28;20426;-44
2022/03/10 09:35:18;;;;;;;12.70;9.82;;;11.40;45.70;;;;;;5034483;28;20061;-48
2022/03/10 09:37:45;;;;;;;15.30;10.63;;;11.20;46.00;;;;;;5017473;28;20048;-43
2022/03/10 09:40:12;;;;;;;14.00;10.00;;;11.00;45.50;;;;;;5034368;28;20021;-47
2022/03/10 09:42:39;;;;;;;13.15;10.95;;;11.00;47.20;;;;;;5035700;28;20141;-44
2022/03/10 09:45:11;;;;;;;12.65;10.75;;;11.10;47.20;;;;;;5034576;28;20072;-44
2022/03/10 09:47:44;;;;;;;11.85;9.95;;;11.10;46.20;;;;;;5017307;28;20029;-45
2022/03/10 09:50:15;;;;;;;13.70;10.80;;;11.30;46.10;;;;;;5035034;28;20029;-46
2022/03/10 09:52:43;;;;;;;13.52;10.68;;;11.40;45.80;;;;;;5017785;28;20534;-46
2022/03/10 09:55:22;;;;;;;12.18;10.88;;;11.40;46.10;;;;;;5017826;28;20103;-45
2022/03/10 09:57:49;;;;;;;12.63;10.10;;;11.40;45.60;;;;;;5016510;28;20116;-45
2022/03/10 10:00:19;;;;;;;13.25;10.55;;;11.50;45.50;;;;;;5034565;28;20451;-45
2022/03/10 10:02:46;;;;;;;11.80;10.40;;;11.70;45.30;;;;;;5030632;28;20152;-43
2022/03/10 10:05:32;;;;;;;14.88;10.48;;;11.90;44.10;;;;;;5017255;28;20459;-44
2022/03/10 10:08:18;;;;;;;13.88;10.48;;;11.80;45.10;;;;;;5034263;28;20058;-49
2022/03/10 10:10:48;;;;;;;11.82;9.93;;;11.90;45.50;;;;;;4992434;28;20062;-44
2022/03/10 10:13:42;;;;;;;13.52;10.55;;;12.10;45.80;;;;;;4980074;28;20053;-49
2022/03/10 10:16:26;;;;;;;11.35;9.98;;;12.10;44.50;;;;;;5001885;28;20050;-44
2022/03/10 10:19:01;;;;;;;12.88;10.38;;;12.00;44.60;;;;;;5027681;28;20021;-45
2022/03/10 10:21:29;;;;;;;13.48;10.20;;;12.40;44.60;;;;;;5017629;28;20354;-45
2022/03/10 10:23:55;;;;;;;13.65;10.13;;;12.40;44.80;;;;;;5030607;28;20099;-44
2022/03/10 10:26:26;;;;;;;12.60;9.73;;;12.50;44.60;;;;;;5031768;28;20033;-44
2022/03/10 10:28:53;;;;;;;11.88;10.20;;;12.40;45.10;;;;;;5012701;28;20105;-44
2022/03/10 10:31:29;;;;;;;13.60;9.80;;;12.50;44.60;;;;;;5002341;28;20084;-46
2022/03/10 10:34:10;;;;;;;13.75;10.40;;;12.50;43.50;;;;;;5031155;28;20030;-48
2022/03/10 10:36:37;;;;;;;13.75;10.38;;;12.50;43.10;;;;;;5013956;28;20071;-46
2022/03/10 10:39:25;;;;;;;16.17;11.13;;;12.60;43.80;;;;;;5013936;28;20041;-43
2022/03/10 10:41:51;;;;;;;12.10;10.02;;;12.60;43.30;;;;;;5026021;28;20490;-43
2022/03/10 10:44:19;;;;;;;13.63;11.13;;;12.70;43.60;;;;;;5030783;28;20105;-49
2022/03/10 10:46:49;;;;;;;12.55;9.70;;;12.70;43.10;;;;;;5013406;28;20055;-44
2022/03/10 10:49:26;;;;;;;11.75;9.60;;;12.70;42.80;;;;;;5014019;28;20443;-42
2022/03/10 10:51:57;;;;;;;13.93;9.85;;;12.70;43.70;;;;;;5030995;28;20029;-45
2022/03/10 10:54:45;;;;;;;15.63;10.52;;;12.90;43.00;;;;;;5014548;28;20059;-45
2022/03/10 10:57:21;;;;;;;13.15;10.73;;;12.90;42.90;;;;;;5030406;28;20034;-46
2022/03/10 11:00:07;;;;;;;11.75;10.05;;;12.90;43.50;;;;;;5029874;28;20030;-43
2022/03/10 11:02:42;;;;;;;13.18;10.90;;;12.90;43.60;;;;;;5028885;28;20029;-50
2022/03/10 11:05:18;;;;;;;13.60;9.88;;;12.90;43.20;;;;;;5013653;28;20519;-45
2022/03/10 11:07:43;;;;;;;15.88;10.15;;;13.00;42.90;;;;;;5029138;28;20060;-46
2022/03/10 11:10:12;;;;;;;13.35;9.63;;;13.00;43.30;;;;;;5012831;28;20100;-43
2022/03/10 11:12:44;;;;;;;13.82;10.05;;;13.10;42.90;;;;;;5013566;28;20025;-46
2022/03/10 11:15:17;;;;;;;14.77;10.80;;;13.20;43.30;;;;;;5030849;28;20361;-43
2022/03/10 11:17:45;;;;;;;11.50;9.73;;;13.30;43.80;;;;;;5029831;28;20037;-45
2022/03/10 11:20:14;;;;;;;11.38;9.65;;;13.40;41.60;;;;;;5029943;28;20053;-48
2022/03/10 11:23:26;;;;;;;13.25;9.60;;;13.40;42.40;;;;;;5026233;28;20037;-43
2022/03/10 11:26:08;;;;;;;12.30;9.27;;;13.50;43.10;;;;;;5014573;28;20120;-44
2022/03/10 11:28:53;;;;;;;12.95;10.88;;;13.60;43.00;;;;;;4994582;28;20025;-46
2022/03/10 11:31:21;;;;;;;19.65;9.63;;;13.60;42.90;;;;;;5021672;28;20494;-43
2022/03/10 11:33:54;;;;;;;15.48;9.80;;;13.60;42.50;;;;;;4990099;28;20026;-43
2022/03/10 11:36:39;;;;;;;16.90;10.68;;;13.70;42.30;;;;;;5028875;28;20040;-44
2022/03/10 11:39:10;;;;;;;14.10;10.25;;;13.70;42.20;;;;;;5027351;28;20527;-44
2022/03/10 11:42:23;;;;;;;13.93;10.00;;;13.90;42.20;;;;;;5029895;28;20104;-45
2022/03/10 11:45:24;;;;;;;12.35;9.30;;;13.80;41.70;;;;;;5029099;28;20037;-44
2022/03/10 11:48:18;;;;;;;13.05;9.48;;;13.70;42.40;;;;;;5014792;28;20048;-44
2022/03/10 11:50:45;;;;;;;12.93;10.10;;;13.80;42.30;;;;;;5011892;28;20030;-46
2022/03/10 11:53:12;;;;;;;14.07;10.23;;;13.80;43.20;;;;;;5026714;28;20038;-44
2022/03/10 11:55:53;;;;;;;14.32;10.30;;;13.90;42.00;;;;;;5024194;28;20021;-44
2022/03/10 11:58:40;;;;;;;14.57;10.70;;;13.90;41.40;;;;;;5008537;28;20029;-48
2022/03/10 12:01:17;;;;;;;12.50;10.32;;;13.60;42.00;;;;;;5025372;28;20040;-44
2022/03/10 12:03:46;;;;;;;12.63;9.50;;;13.50;43.10;;;;;;5007898;28;20451;-45
2022/03/10 12:06:18;;;;;;;10.82;9.25;;;13.60;44.00;;;;;;5017565;28;20041;-48
2022/03/10 12:09:03;;;;;;;13.63;9.90;;;13.70;44.40;;;;;;4995265;28;20053;-44
2022/03/10 12:11:52;;;;;;;13.20;8.57;;;13.60;41.70;;;;;;5019754;28;20022;-46
2022/03/10 12:14:34;;;;;;;11.85;9.40;;;13.60;41.80;;;;;;5029367;28;20049;-46
2022/03/10 12:17:00;;;;;;;13.50;10.55;;;13.70;41.90;;;;;;5011036;28;20036;-44
2022/03/10 12:20:04;;;;;;;11.18;9.95;;;13.60;41.70;;;;;;5028526;28;20060;-43
2022/03/10 12:22:30;;;;;;;12.73;9.57;;;13.60;41.40;;;;;;5009679;28;20026;-49
2022/03/10 12:25:21;;;;;;;11.88;9.23;;;13.80;41.60;;;;;;5009428;28;20065;-45
2022/03/10 12:27:57;;;;;;;11.23;8.90;;;13.90;41.80;;;;;;4994873;28;20359;-45
2022/03/10 12:30:30;;;;;;;11.63;10.02;;;13.90;41.00;;;;;;4999262;28;20112;-43
2022/03/10 12:32:58;;;;;;;12.45;10.07;;;14.00;41.60;;;;;;4995545;28;20083;-43
2022/03/10 12:35:34;;;;;;;12.10;9.98;;;14.00;40.20;;;;;;4979741;28;20036;-43
2022/03/10 12:38:00;;;;;;;14.57;10.30;;;14.00;39.80;;;;;;5011805;28;20166;-46
2022/03/10 12:40:30;;;;;;;12.90;8.73;;;14.00;39.60;;;;;;5011349;28;20034;-45
2022/03/10 12:43:08;;;;;;;15.15;9.32;;;14.00;38.90;;;;;;4995305;28;20074;-45
2022/03/10 12:45:56;;;;;;;10.82;9.30;;;14.00;38.00;;;;;;5001894;28;20109;-44
2022/03/10 12:48:48;;;;;;;11.90;9.38;;;13.90;39.30;;;;;;4994222;28;20033;-44
2022/03/10 12:51:23;;;;;;;11.10;8.77;;;14.00;38.70;;;;;;5028719;28;20072;-45
2022/03/10 12:53:51;;;;;;;11.38;9.30;;;13.90;38.40;;;;;;4987327;28;20041;-45
2022/03/10 12:56:17;;;;;;;9.95;8.63;;;13.80;38.60;;;;;;5020055;28;20065;-46
2022/03/10 12:58:58;;;;;;;16.58;10.23;;;13.70;39.20;;;;;;4999164;28;20065;-44